createdAt,value
2023-04-12T00:01:25.296Z,99249.02
2023-04-12T00:04:25.440Z,99245.86
2023-04-12T00:07:27.304Z,99248.09
2023-04-12T00:10:29.318Z,99246.80
2023-04-12T00:13:29.340Z,99244.61
2023-04-12T00:16:33.547Z,99240.52
2023-04-12T00:19:33.419Z,99236.52
2023-04-12T00:22:27.865Z,99235.45
2023-04-12T00:25:29.380Z,99233.27
2023-04-12T00:28:30.390Z,99241.23
2023-04-12T00:31:30.400Z,99238.45
2023-04-12T00:34:30.397Z,99238.03
2023-04-12T00:37:31.375Z,99231.04
2023-04-12T00:40:32.372Z,99227.64
2023-04-12T00:43:33.452Z,99224.03
2023-04-12T00:46:35.458Z,99217.38
2023-04-12T00:49:36.435Z,99214.58
2023-04-12T00:52:40.379Z,99213.00
2023-04-12T00:55:40.393Z,99211.24
2023-04-12T00:58:40.404Z,99209.70
2023-04-12T01:01:48.050Z,99203.67
2023-04-12T01:04:50.402Z,99211.50
2023-04-12T01:07:53.482Z,99204.70
2023-04-12T01:10:59.408Z,99201.19
2023-04-12T01:14:04.492Z,99209.10
2023-04-12T01:17:04.533Z,99205.02
2023-04-12T01:20:24.422Z,99199.67
2023-04-12T01:23:37.508Z,99197.41
2023-04-12T01:26:43.447Z,99191.77
2023-04-12T01:29:43.458Z,99180.94
2023-04-12T01:32:43.541Z,99179.66
2023-04-12T01:35:43.546Z,99172.33
2023-04-12T01:38:43.527Z,99171.70
2023-04-12T01:41:45.482Z,99169.90
2023-04-12T01:44:45.463Z,99168.45
2023-04-12T01:47:46.523Z,99167.38
2023-04-12T01:50:54.455Z,99158.83
2023-04-12T01:53:59.488Z,99154.38
2023-04-12T01:57:06.558Z,99154.05
2023-04-12T02:00:07.739Z,99147.49
2023-04-12T02:03:07.554Z,99146.40
2023-04-12T02:06:07.513Z,99143.80
2023-04-12T02:09:13.584Z,99137.46
2023-04-12T02:12:14.519Z,99131.73
2023-04-12T02:15:14.544Z,99126.39
2023-04-12T02:18:20.079Z,99130.80
2023-04-12T02:21:20.592Z,99128.37
2023-04-12T02:24:20.588Z,99128.52
2023-04-12T02:27:20.570Z,99126.30
2023-04-12T02:30:20.547Z,99125.80
2023-04-12T02:33:21.604Z,99121.15
2023-04-12T02:36:24.598Z,99115.11
2023-04-12T02:39:25.557Z,99110.80
2023-04-12T02:42:25.646Z,99115.04
2023-04-12T02:45:25.590Z,99109.21
2023-04-12T02:48:26.613Z,99108.84
2023-04-12T02:51:26.624Z,99106.78
2023-04-12T02:54:27.610Z,99098.18
2023-04-12T02:57:27.626Z,99095.86
2023-04-12T03:00:27.624Z,99094.35
2023-04-12T03:03:43.727Z,99093.18
2023-04-12T03:06:59.602Z,99090.47
2023-04-12T03:10:20.694Z,99089.14
2023-04-12T03:13:27.625Z,99085.58
2023-04-12T03:16:38.635Z,99086.97
2023-04-12T03:19:41.629Z,99080.73
2023-04-12T03:22:42.678Z,99084.19
2023-04-12T03:25:43.656Z,99083.59
2023-04-12T03:29:02.682Z,99082.57
2023-04-12T03:32:03.664Z,99078.56
2023-04-12T03:35:03.668Z,99075.94
2023-04-12T03:38:04.693Z,99068.70
2023-04-12T03:41:04.887Z,99065.28
2023-04-12T03:44:05.684Z,99065.64
2023-04-12T03:47:05.776Z,99061.75
2023-04-12T03:50:12.031Z,99061.47
2023-04-12T03:53:19.763Z,99062.58
2023-04-12T03:56:19.696Z,99062.70
2023-04-12T03:59:21.681Z,99065.46
2023-04-12T04:02:21.848Z,99063.76
2023-04-12T04:05:22.702Z,99064.11
2023-04-12T04:08:23.804Z,99057.94
2023-04-12T04:11:24.761Z,99059.17
2023-04-12T04:14:40.826Z,99058.64
2023-04-12T04:17:48.812Z,99060.66
2023-04-12T04:20:51.749Z,99055.16
2023-04-12T04:23:53.759Z,99052.31
2023-04-12T04:26:53.761Z,99051.38
2023-04-12T04:29:54.818Z,99051.45
2023-04-12T04:32:58.914Z,99051.79
2023-04-12T04:36:00.948Z,99050.95
2023-04-12T04:39:01.903Z,99048.80
2023-04-12T04:42:05.855Z,99046.64
2023-04-12T04:45:08.773Z,99047.60
2023-04-12T04:48:10.821Z,99051.23
2023-04-12T04:51:15.793Z,99046.67
2023-04-12T04:54:15.783Z,99046.38
2023-04-12T04:57:17.829Z,99044.57
2023-04-12T05:00:21.872Z,99049.33
2023-04-12T05:03:22.906Z,99046.16
2023-04-12T05:06:22.847Z,99043.45
2023-04-12T05:09:22.801Z,99043.13
2023-04-12T05:12:22.980Z,99043.31
2023-04-12T05:15:24.830Z,99039.71
2023-04-12T05:18:27.870Z,99042.73
2023-04-12T05:21:31.826Z,99039.54
2023-04-12T05:24:32.898Z,99039.90
2023-04-12T05:27:33.904Z,99039.23
2023-04-12T05:30:33.933Z,99034.16
2023-04-12T05:33:34.870Z,99031.52
2023-04-12T05:36:34.921Z,99030.39
2023-04-12T05:39:37.861Z,99026.87
2023-04-12T05:42:37.883Z,99029.50
2023-04-12T05:45:42.937Z,99027.24
2023-04-12T05:48:45.881Z,99022.77
2023-04-12T05:51:46.556Z,99021.08
2023-04-12T05:55:02.938Z,99020.79
2023-04-12T05:58:08.122Z,99017.54
2023-04-12T06:01:09.010Z,99013.77
2023-04-12T06:04:10.086Z,99010.36
2023-04-12T06:07:11.958Z,99013.45
2023-04-12T06:10:11.944Z,99009.89
2023-04-12T06:13:19.936Z,99006.83
2023-04-12T06:16:21.143Z,99005.00
2023-04-12T06:19:20.937Z,99003.86
2023-04-12T06:22:21.967Z,99000.17
2023-04-12T06:25:22.050Z,98997.95
2023-04-12T06:28:33.973Z,98996.45
2023-04-12T06:31:34.077Z,98994.12
2023-04-12T06:34:34.839Z,98991.29
2023-04-12T06:37:40.049Z,98987.22
2023-04-12T06:40:41.148Z,98987.73
2023-04-12T06:43:41.020Z,98989.14
2023-04-12T06:46:43.998Z,98987.65
2023-04-12T06:49:45.062Z,98988.02
2023-04-12T06:52:46.158Z,98985.19
2023-04-12T06:55:46.049Z,98985.73
2023-04-12T06:58:46.114Z,98980.32
2023-04-12T07:01:46.047Z,98978.83
2023-04-12T07:04:46.068Z,98978.15
2023-04-12T07:07:46.001Z,98981.44
2023-04-12T07:10:48.042Z,98976.15
2023-04-12T07:13:51.063Z,98976.32
2023-04-12T07:16:53.160Z,98976.86
2023-04-12T07:19:53.419Z,98973.27
2023-04-12T07:23:00.098Z,98975.20
2023-04-12T07:26:00.148Z,98975.95
2023-04-12T07:29:03.066Z,98967.91
2023-04-12T07:32:08.108Z,98966.19
2023-04-12T07:35:08.140Z,98966.44
2023-04-12T07:38:10.176Z,98961.02
2023-04-12T07:41:10.119Z,98962.96
2023-04-12T07:44:12.101Z,98956.99
2023-04-12T07:47:13.103Z,98957.39
2023-04-12T07:50:13.438Z,98960.14
2023-04-12T07:53:30.150Z,98958.11
2023-04-12T07:56:30.152Z,98963.92
2023-04-12T07:59:30.142Z,98966.32
2023-04-12T08:02:33.260Z,98961.73
2023-04-12T08:05:33.323Z,98967.02
2023-04-12T08:08:37.136Z,98962.19
2023-04-12T08:11:37.129Z,98958.98
2023-04-12T08:14:39.145Z,98956.46
2023-04-12T08:17:41.175Z,98954.98
2023-04-12T08:20:41.168Z,98958.79
2023-04-12T08:23:42.152Z,98955.77
2023-04-12T08:26:42.237Z,98953.46
2023-04-12T08:29:45.178Z,98953.68
2023-04-12T08:32:46.257Z,98950.42
2023-04-12T08:35:46.240Z,98954.06
2023-04-12T08:38:46.781Z,98946.54
2023-04-12T08:41:47.214Z,98942.58
2023-04-12T08:44:51.252Z,98944.98
2023-04-12T08:47:51.285Z,98939.33
2023-04-12T08:50:52.290Z,98940.02
2023-04-12T08:53:52.251Z,98935.46
2023-04-12T08:56:59.204Z,98928.66
2023-04-12T09:00:00.252Z,98927.89
2023-04-12T09:03:03.356Z,98924.17
2023-04-12T09:06:03.245Z,98922.88
2023-04-12T09:09:08.259Z,98925.16
2023-04-12T09:12:19.361Z,98921.05
2023-04-12T09:15:20.546Z,98919.66
2023-04-12T09:18:20.347Z,98921.58
2023-04-12T09:21:24.073Z,98917.33
2023-04-12T09:24:24.433Z,98915.15
2023-04-12T09:27:27.278Z,98914.69
2023-04-12T09:30:27.315Z,98914.89
2023-04-12T09:33:33.371Z,98913.53
2023-04-12T09:36:34.374Z,98903.54
2023-04-12T09:39:45.369Z,98901.09
2023-04-12T09:42:48.294Z,98901.41
2023-04-12T09:45:49.404Z,98906.57
2023-04-12T09:48:50.404Z,98907.45
2023-04-12T09:51:50.444Z,98908.65
2023-04-12T09:54:56.348Z,98907.16
2023-04-12T09:57:56.404Z,98904.42
2023-04-12T10:00:56.400Z,98902.23
2023-04-12T10:04:00.107Z,98896.26
2023-04-12T10:07:00.356Z,98897.13
2023-04-12T10:10:01.387Z,98893.52
2023-04-12T10:13:01.362Z,98896.75
2023-04-12T10:16:02.430Z,98893.98
2023-04-12T10:19:02.453Z,98900.63
2023-04-12T10:22:02.430Z,98894.30
2023-04-12T10:25:02.423Z,98893.27
2023-04-12T10:28:03.574Z,98896.52
2023-04-12T10:31:05.461Z,98895.45
2023-04-12T10:34:06.400Z,98896.48
2023-04-12T10:37:06.499Z,98892.05
2023-04-12T10:40:06.453Z,98894.85
2023-04-12T10:43:25.500Z,98889.92
2023-04-12T10:46:44.567Z,98894.76
2023-04-12T10:49:44.556Z,98893.42
2023-04-12T10:52:47.476Z,98893.40
2023-04-12T10:55:48.479Z,98887.71
2023-04-12T10:59:01.626Z,98891.48
2023-04-12T11:02:20.657Z,98892.17
2023-04-12T11:05:25.573Z,98892.30
2023-04-12T11:08:36.467Z,98886.27
2023-04-12T11:11:56.530Z,98885.56
2023-04-12T11:14:58.452Z,98881.05
2023-04-12T11:18:10.613Z,98881.73
2023-04-12T11:21:12.508Z,98881.40
2023-04-12T11:24:12.527Z,98879.71
2023-04-12T11:27:15.711Z,98875.95
2023-04-12T11:30:21.322Z,98874.25
2023-04-12T11:33:22.554Z,98872.88
2023-04-12T11:36:24.577Z,98873.71
2023-04-12T11:39:24.650Z,98875.45
2023-04-12T11:42:27.719Z,98868.06
2023-04-12T11:45:31.537Z,98866.19
2023-04-12T11:48:32.616Z,98870.31
2023-04-12T11:51:35.561Z,98870.33
2023-04-12T11:54:35.740Z,98872.94
2023-04-12T11:57:35.635Z,98869.70
2023-04-12T12:00:37.611Z,98870.41
2023-04-12T12:03:39.762Z,98867.70
2023-04-12T12:06:39.805Z,98864.80
2023-04-12T12:09:41.539Z,98863.81
2023-04-12T12:12:43.576Z,98862.64
2023-04-12T12:15:43.688Z,98857.72
2023-04-12T12:18:53.089Z,98849.86
2023-04-12T12:21:55.034Z,98846.27
2023-04-12T12:25:04.596Z,98846.80
2023-04-12T12:28:11.764Z,98843.73
2023-04-12T12:31:13.690Z,98842.02
2023-04-12T12:34:14.686Z,98838.73
2023-04-12T12:37:14.682Z,98836.67
2023-04-12T12:40:23.624Z,98838.05
2023-04-12T12:43:30.731Z,98833.63
2023-04-12T12:46:44.508Z,98832.77
2023-04-12T12:49:48.855Z,98829.68
2023-04-12T12:52:49.705Z,98829.49
2023-04-12T12:55:49.750Z,98825.20
2023-04-12T12:58:49.641Z,98821.78
2023-04-12T13:01:50.882Z,98816.63
2023-04-12T13:04:52.823Z,98814.40
2023-04-12T13:07:53.699Z,98814.58
2023-04-12T13:10:53.725Z,98818.54
2023-04-12T13:13:54.934Z,98814.91
2023-04-12T13:16:54.827Z,98813.38
2023-04-12T13:20:00.683Z,98816.98
2023-04-12T13:23:03.707Z,98816.48
2023-04-12T13:26:04.802Z,98813.05
2023-04-12T13:32:23.769Z,98812.84
2023-04-12T13:35:23.733Z,98809.73
2023-04-12T13:38:24.076Z,98815.23
2023-04-12T13:41:23.782Z,98814.36
2023-04-12T13:44:23.914Z,98816.77
2023-04-12T13:47:28.584Z,98817.64
2023-04-12T13:50:28.825Z,98819.03
2023-04-12T13:53:36.873Z,98820.95
2023-04-12T13:56:40.052Z,98824.39
2023-04-12T13:59:33.982Z,98826.48
2023-04-12T14:02:34.905Z,98829.92
2023-04-12T14:05:34.755Z,98829.42
2023-04-12T14:08:34.822Z,98828.89
2023-04-12T14:11:35.777Z,98834.55
2023-04-12T14:14:36.844Z,98836.42
2023-04-12T14:17:38.855Z,98837.96
2023-04-12T14:20:38.792Z,98838.83
2023-04-12T14:23:39.808Z,98841.09
2023-04-12T14:26:39.875Z,98846.77
2023-04-12T14:29:39.866Z,98842.47
2023-04-12T14:32:40.928Z,98844.89
2023-04-12T14:35:40.797Z,98839.92
2023-04-12T14:38:41.839Z,98839.09
2023-04-12T14:41:41.842Z,98837.21
2023-04-12T14:44:41.890Z,98838.61
2023-04-12T14:47:42.030Z,98837.94
2023-04-12T14:50:41.829Z,98839.15
2023-04-12T14:53:46.015Z,98841.91
2023-04-12T14:56:51.902Z,98842.10
2023-04-12T15:00:00.946Z,98838.67
2023-04-12T15:03:01.205Z,98836.43
2023-04-12T15:06:05.006Z,98833.34
2023-04-12T15:09:06.619Z,98834.38
2023-04-12T15:12:10.025Z,98833.67
2023-04-12T15:15:12.966Z,98834.72
2023-04-12T15:18:13.901Z,98829.03
2023-04-12T15:21:14.911Z,98831.61
2023-04-12T15:24:17.935Z,98830.23
2023-04-12T15:27:18.961Z,98823.71
2023-04-12T15:30:20.938Z,98824.57
2023-04-12T15:33:22.236Z,98822.51
2023-04-12T15:36:25.996Z,98823.89
2023-04-12T15:39:30.993Z,98827.52
2023-04-12T15:42:31.042Z,98826.98
2023-04-12T15:45:33.237Z,98827.67
2023-04-12T15:48:36.922Z,98828.51
2023-04-12T15:51:38.370Z,98825.56
2023-04-12T15:54:48.018Z,98827.45
2023-04-12T15:57:49.024Z,98828.48
2023-04-12T16:00:52.273Z,98835.20
2023-04-12T16:03:57.233Z,98831.03
2023-04-12T16:06:59.009Z,98829.79
2023-04-12T16:10:00.114Z,98826.33
2023-04-12T16:12:59.985Z,98825.98
2023-04-12T16:16:00.201Z,98826.14
2023-04-12T16:19:01.077Z,98822.02
2023-04-12T16:22:02.025Z,98821.14
2023-04-12T16:25:05.052Z,98817.69
2023-04-12T16:28:08.059Z,98823.51
2023-04-12T16:31:09.186Z,98823.32
2023-04-12T16:34:22.041Z,98825.72
2023-04-12T16:37:22.067Z,98829.83
2023-04-12T16:40:26.201Z,98827.43
2023-04-12T16:43:26.222Z,98837.23
2023-04-12T16:46:27.186Z,98836.89
2023-04-12T16:49:27.113Z,98841.55
2023-04-12T16:52:27.061Z,98842.07
2023-04-12T16:55:31.105Z,98847.89
2023-04-12T16:58:31.408Z,98850.82
2023-04-12T17:01:35.122Z,98846.87
2023-04-12T17:04:35.112Z,98847.02
2023-04-12T17:07:35.148Z,98850.64
2023-04-12T17:10:40.115Z,98856.31
2023-04-12T17:13:41.151Z,98854.94
2023-04-12T17:16:42.186Z,98860.43
2023-04-12T17:19:46.180Z,98859.77
2023-04-12T17:22:48.356Z,98863.20
2023-04-12T17:25:57.235Z,98867.49
2023-04-12T17:28:59.173Z,98869.73
2023-04-12T17:32:03.331Z,98864.72
2023-04-12T17:35:07.181Z,98867.10
2023-04-12T17:38:11.454Z,98870.88
2023-04-12T17:41:17.844Z,98874.48
2023-04-12T17:44:19.692Z,98873.44
2023-04-12T17:47:29.317Z,98876.51
2023-04-12T17:50:29.201Z,98878.73
2023-04-12T17:53:38.715Z,98882.12
2023-04-12T17:56:40.273Z,98883.11
2023-04-12T17:59:40.231Z,98878.94
2023-04-12T18:02:42.824Z,98879.59
2023-04-12T18:05:43.252Z,98871.48
2023-04-12T18:08:50.218Z,98874.02
2023-04-12T18:11:51.182Z,98876.23
2023-04-12T18:14:52.238Z,98870.38
2023-04-12T18:17:54.268Z,98873.60
2023-04-12T18:20:58.570Z,98873.41
2023-04-12T18:24:01.234Z,98857.77
2023-04-12T18:27:05.231Z,98855.82
2023-04-12T18:30:07.566Z,98856.60
2023-04-12T18:33:07.359Z,98869.21
2023-04-12T18:36:08.330Z,98865.38
2023-04-12T18:39:08.288Z,98856.19
2023-04-12T18:42:09.293Z,98858.50
2023-04-12T18:45:09.267Z,98848.99
2023-04-12T18:48:14.318Z,98852.05
2023-04-12T18:51:14.762Z,98855.14
2023-04-12T18:54:19.299Z,98856.66
2023-04-12T18:57:19.379Z,98858.36
2023-04-12T19:00:20.277Z,98856.80
2023-04-12T19:03:24.151Z,98853.31
2023-04-12T19:06:25.300Z,98855.85
2023-04-12T19:09:25.302Z,98854.63
2023-04-12T19:12:26.395Z,98850.14
2023-04-12T19:15:26.388Z,98854.94
2023-04-12T19:18:26.338Z,98850.62
2023-04-12T19:21:26.417Z,98861.77
2023-04-12T19:24:26.409Z,98863.84
2023-04-12T19:27:26.389Z,98862.79
2023-04-12T19:30:27.446Z,98861.08
2023-04-12T19:33:48.419Z,98861.05
2023-04-12T19:36:50.318Z,98855.59
2023-04-12T19:39:50.366Z,98856.10
2023-04-12T19:42:51.389Z,98860.23
2023-04-12T19:45:51.527Z,98855.42
2023-04-12T19:48:53.630Z,98856.43
2023-04-12T19:51:54.421Z,98854.04
2023-04-12T19:54:55.412Z,98846.15
2023-04-12T19:57:56.435Z,98848.58
2023-04-12T20:00:56.382Z,98848.75
2023-04-12T20:03:58.433Z,98847.73
2023-04-12T20:06:59.420Z,98845.86
2023-04-12T20:09:59.428Z,98850.33
2023-04-12T20:12:59.434Z,98846.54
2023-04-12T20:16:00.445Z,98852.00
2023-04-12T20:19:03.639Z,98856.46
2023-04-12T20:22:09.554Z,98852.54
2023-04-12T20:25:10.591Z,98859.26
2023-04-12T20:28:11.425Z,98856.55
2023-04-12T20:31:11.494Z,98853.14
2023-04-12T20:34:12.447Z,98853.17
2023-04-12T20:37:12.438Z,98855.75
2023-04-12T20:40:15.454Z,98854.38
2023-04-12T20:43:17.446Z,98855.40
2023-04-12T20:46:21.486Z,98856.25
2023-04-12T20:49:22.543Z,98856.41
2023-04-12T20:52:25.374Z,98854.17
2023-04-12T20:55:41.181Z,98850.75
2023-04-12T20:58:41.474Z,98848.69
2023-04-12T21:01:42.644Z,98850.60
2023-04-12T21:04:47.598Z,98849.06
2023-04-12T21:07:50.041Z,98852.86
2023-04-12T21:10:50.611Z,98853.38
2023-04-12T21:13:51.480Z,98851.50
2023-04-12T21:16:54.536Z,98852.38
2023-04-12T21:19:57.705Z,98855.83
2023-04-12T21:23:07.143Z,98857.23
2023-04-12T21:26:15.605Z,98855.34
2023-04-12T21:29:26.581Z,98850.05
2023-04-12T21:32:26.721Z,98849.88
2023-04-12T21:35:28.539Z,98849.70
2023-04-12T21:38:28.564Z,98850.23
2023-04-12T21:41:31.712Z,98846.61
2023-04-12T21:44:34.577Z,98847.80
2023-04-12T21:47:49.195Z,98846.78
2023-04-12T21:50:54.765Z,98848.16
2023-04-12T21:53:59.567Z,98848.17
2023-04-12T21:57:06.875Z,98846.61
2023-04-12T22:00:15.591Z,98841.48
2023-04-12T22:03:17.802Z,98838.88
2023-04-12T22:06:37.215Z,98837.14
2023-04-12T22:09:39.609Z,98833.71
2023-04-12T22:12:39.589Z,98835.79
2023-04-12T22:15:40.717Z,98837.17
2023-04-12T22:18:40.634Z,98837.20
2023-04-12T22:21:47.148Z,98833.25
2023-04-12T22:24:48.603Z,98836.55
2023-04-12T22:27:52.654Z,98839.80
2023-04-12T22:30:54.642Z,98835.13
2023-04-12T22:33:54.692Z,98830.86
2023-04-12T22:37:04.631Z,98824.83
2023-04-12T22:40:07.703Z,98823.63
2023-04-12T22:43:07.728Z,98811.97
2023-04-12T22:46:09.671Z,98816.11
2023-04-12T22:49:09.644Z,98819.55
2023-04-12T22:52:11.690Z,98821.97
2023-04-12T22:55:11.711Z,98823.36
2023-04-12T22:58:12.698Z,98825.74
2023-04-12T23:01:12.736Z,98823.47
2023-04-12T23:04:12.685Z,98811.61
2023-04-12T23:07:12.717Z,98805.79
2023-04-12T23:10:13.750Z,98807.86
2023-04-12T23:13:15.746Z,98810.60
2023-04-12T23:16:21.746Z,98812.66
2023-04-12T23:19:22.729Z,98806.64
2023-04-12T23:22:56.113Z,98799.08
2023-04-12T23:25:57.761Z,98790.49
2023-04-12T23:28:57.705Z,98782.06
2023-04-12T23:31:58.780Z,98782.21
2023-04-12T23:34:58.725Z,98775.34
2023-04-12T23:38:00.739Z,98767.42
2023-04-12T23:41:03.795Z,98766.52
2023-04-12T23:43:58.093Z,98772.30
2023-04-12T23:47:02.972Z,98773.96
2023-04-12T23:50:03.738Z,98773.94
2023-04-12T23:53:06.862Z,98770.88
2023-04-12T23:56:06.791Z,98763.99
2023-04-12T23:59:06.797Z,98762.59
